Map

Track Data

SID SEASON NUMBER BASIN SUBBASIN NAME ISO_TIME NATURE LAT LON WMO_WIND WMO_PRES WMO_AGENCY TRACK_TYPE DIST2LAND LANDFALL IFLAG USA_AGENCY USA_ATCF_ID USA_LAT USA_LON USA_RECORD USA_STATUS USA_WIND USA_PRES USA_SSHS USA_R34_NE USA_R34_SE USA_R34_SW USA_R34_NW USA_R50_NE USA_R50_SE USA_R50_SW USA_R50_NW USA_R64_NE USA_R64_SE USA_R64_SW USA_R64_NW USA_POCI USA_ROCI USA_RMW USA_EYE TOKYO_LAT TOKYO_LON TOKYO_GRADE TOKYO_WIND TOKYO_PRES TOKYO_R50_DIR TOKYO_R50_LONG TOKYO_R50_SHORT TOKYO_R30_DIR TOKYO_R30_LONG TOKYO_R30_SHORT TOKYO_LAND CMA_LAT CMA_LON CMA_CAT CMA_WIND CMA_PRES HKO_LAT HKO_LON HKO_CAT HKO_WIND HKO_PRES NEWDELHI_LAT NEWDELHI_LON NEWDELHI_GRADE NEWDELHI_WIND NEWDELHI_PRES NEWDELHI_CI NEWDELHI_DP NEWDELHI_POCI REUNION_LAT REUNION_LON REUNION_TYPE REUNION_WIND REUNION_PRES REUNION_TNUM REUNION_CI REUNION_RMW REUNION_R34_NE REUNION_R34_SE REUNION_R34_SW REUNION_R34_NW REUNION_R50_NE REUNION_R50_SE REUNION_R50_SW REUNION_R50_NW REUNION_R64_NE REUNION_R64_SE REUNION_R64_SW REUNION_R64_NW BOM_LAT BOM_LON BOM_TYPE BOM_WIND BOM_PRES BOM_TNUM BOM_CI BOM_RMW BOM_R34_NE BOM_R34_SE BOM_R34_SW BOM_R34_NW BOM_R50_NE BOM_R50_SE BOM_R50_SW BOM_R50_NW BOM_R64_NE BOM_R64_SE BOM_R64_SW BOM_R64_NW BOM_ROCI BOM_POCI BOM_EYE BOM_POS_METHOD BOM_PRES_METHOD NADI_LAT NADI_LON NADI_CAT NADI_WIND NADI_PRES WELLINGTON_LAT WELLINGTON_LON WELLINGTON_WIND WELLINGTON_PRES DS824_LAT DS824_LON DS824_STAGE DS824_WIND DS824_PRES TD9636_LAT TD9636_LON TD9636_STAGE TD9636_WIND TD9636_PRES TD9635_LAT TD9635_LON TD9635_WIND TD9635_PRES TD9635_ROCI NEUMANN_LAT NEUMANN_LON NEUMANN_CLASS NEUMANN_WIND NEUMANN_PRES MLC_LAT MLC_LON MLC_CLASS MLC_WIND MLC_PRES USA_GUST BOM_GUST BOM_GUST_PER REUNION_GUST REUNION_GUST_PER USA_SEAHGT USA_SEARAD_NE USA_SEARAD_SE USA_SEARAD_SW USA_SEARAD_NW STORM_SPEED STORM_DIR
1887233N21088 1887 37 NI BB NOT_NAMED 1887-08-21 00:00:00 TS 21.0000 87.7000 main 73 59 _________O____ -1 21.0000 87.7000 TC 30 3 325
1887233N21088 1887 37 NI BB NOT_NAMED 1887-08-21 03:00:00 TS 21.1367 87.5968 main 59 35 _________PO___ -1 21.2051 87.5452 TC 30 21.0000 87.7000 1 4 326
1887233N21088 1887 37 NI BB NOT_NAMED 1887-08-21 06:00:00 TS 21.3118 87.4699 main 35 11 _________OP___ -1 21.4000 87.4000 TC 30 21.1796 87.5748 1 4 326
1887233N21088 1887 37 NI BB NOT_NAMED 1887-08-21 09:00:00 TS 21.4917 87.3398 main 11 0 _________PP___ -1 21.5849 87.2648 TC 30 21.3674 87.4397 1 5 325
1887233N21088 1887 37 NI BB NOT_NAMED 1887-08-21 12:00:00 TS 21.6857 87.1923 main 0 0 _________OP___ -1 21.8000 87.1000 TC 30 21.5714 87.2847 1 6 324
1887233N21088 1887 37 NI BB NOT_NAMED 1887-08-21 15:00:00 TS 21.9538 86.9751 main 0 0 _________PO___ -1 22.1076 86.8502 TC 30 21.8000 87.1000 1 7 322
1887233N21088 1887 37 NI BB NOT_NAMED 1887-08-21 18:00:00 TS 22.2273 86.7412 main 0 0 _________OP___ -1 22.4000 86.6000 TC 30 22.0546 86.8824 1 6 321
1887233N21088 1887 37 NI BB NOT_NAMED 1887-08-21 21:00:00 TS 22.4526 86.5341 main 0 0 _________PP___ -1 22.5950 86.4124 TC 30 22.3103 86.6557 1 5 319
1887233N21088 1887 37 NI BB NOT_NAMED 1887-08-22 00:00:00 TS 22.6179 86.3755 main 0 0 _________OP___ -1 22.7000 86.3000 TC 30 22.5358 86.4511 1 3 319
1887233N21088 1887 37 NI BB NOT_NAMED 1887-08-22 03:00:00 TS 22.7112 86.2887 main 0 0 _________PO___ -1 22.7225 86.2775 TC 30 22.7000 86.3000 1 2 321
1887233N21088 1887 37 NI BB NOT_NAMED 1887-08-22 06:00:00 TS 22.7323 86.2711 main 0 0 _________OP___ -1 22.7000 86.3000 TC 30 22.7645 86.2421 1 0 0
1887233N21088 1887 37 NI BB NOT_NAMED 1887-08-22 09:00:00 TS 22.7337 86.2698 main 0 0 _________PP___ -1 22.7000 86.3000 TC 30 22.7673 86.2396 1 0 0
1887233N21088 1887 37 NI BB NOT_NAMED 1887-08-22 12:00:00 TS 22.7182 86.2836 main 0 0 _________OP___ -1 22.7000 86.3000 TC 30 22.7365 86.2673 1 0 148
1887233N21088 1887 37 NI BB NOT_NAMED 1887-08-22 15:00:00 TS 22.7000 86.3000 main 0 0 _________PO___ -1 22.7000 86.3000 TC 30 22.7000 86.3000 1 1 127
1887233N21088 1887 37 NI BB NOT_NAMED 1887-08-22 18:00:00 TS 22.6649 86.3581 main 0 0 _________OP___ -1 22.7000 86.3000 TC 30 22.6299 86.4162 1 2 122
1887233N21088 1887 37 NI BB NOT_NAMED 1887-08-22 21:00:00 TS 22.6126 86.4483 main 0 0 _________PP___ -1 22.6547 86.3821 TC 30 22.5704 86.5144 1 0 133
1887233N21088 1887 37 NI BB NOT_NAMED 1887-08-23 00:00:00 TS 22.6379 86.4027 main 0 0 _________OP___ -1 22.7000 86.3000 TC 30 22.5759 86.5055 1 4 301
1887233N21088 1887 37 NI BB NOT_NAMED 1887-08-23 03:00:00 TS 22.8086 86.0922 main 0 0 _________PO___ -1 22.9172 85.8843 TC 30 22.7000 86.3000 1 10 303
1887233N21088 1887 37 NI BB NOT_NAMED 1887-08-23 06:00:00 TS 23.1804 85.5020 main 0 0 _________OP___ -1 23.3000 85.2000 TC 30 23.0609 85.8040 1 15 305
1887233N21088 1887 37 NI BB NOT_NAMED 1887-08-23 09:00:00 TS 23.7049 84.7217 main 0 0 _________PP___ -1 23.8805 84.3395 TC 30 23.5292 85.1040 1 18 304
1887233N21088 1887 37 NI BB NOT_NAMED 1887-08-23 12:00:00 TS 24.2038 83.8381 main 0 0 _________OP___ -1 24.4000 83.4000 TC 30 24.0076 84.2763 1 18 296
1887233N21088 1887 37 NI BB NOT_NAMED 1887-08-23 15:00:00 TS 24.4871 82.9956 main 0 0 _________PO___ -1 24.5742 82.5911 TC 30 24.4000 83.4000 1 16 284
1887233N21088 1887 37 NI BB NOT_NAMED 1887-08-23 18:00:00 TS 24.5911 82.1459 main 0 0 _________OP___ -1 24.6000 81.8000 TC 30 24.5822 82.4918 1 16 276
1887233N21088 1887 37 NI BB NOT_NAMED 1887-08-23 21:00:00 TS 24.6623 81.2135 main 0 0 _________PP___ -1 24.6584 80.8525 TC 30 24.6663 81.5746 1 16 274
1887233N21088 1887 37 NI BB NOT_NAMED 1887-08-24 00:00:00 TS 24.6959 80.4227 main 0 0 _________OP___ -1 24.7000 80.1000 TC 30 24.6917 80.7453 1 11 273
1887233N21088 1887 37 NI BB NOT_NAMED 1887-08-24 03:00:00 TS 24.7246 79.9724 main 0 0 _________PO___ -1 24.7491 79.8449 TC 30 24.7000 80.1000 1 6 278
1887233N21088 1887 37 NI BB NOT_NAMED 1887-08-24 06:00:00 TS 24.7731 79.7818 main 0 0 _________OP___ -1 24.8000 79.8000 TC 30 24.7461 79.7635 1 3 287
1887233N21088 1887 37 NI BB NOT_NAMED 1887-08-24 09:00:00 TS 24.8158 79.6346 main 0 0 _________PP___ -1 24.8425 79.6574 TC 30 24.7892 79.6118 1 3 293
1887233N21088 1887 37 NI BB NOT_NAMED 1887-08-24 12:00:00 TS 24.8689 79.5271 main 0 0 _________OP___ -1 24.9000 79.5000 TC 30 24.8378 79.5542 1 2 302
1887233N21088 1887 37 NI BB NOT_NAMED 1887-08-24 15:00:00 TS 24.9463 79.4038 main 0 0 _________PO___ -1 24.9925 79.3075 TC 30 24.9000 79.5000 1 3 301
1887233N21088 1887 37 NI BB NOT_NAMED 1887-08-24 18:00:00 TS 25.0429 79.2012 main 0 0 _________OP___ -1 25.1000 79.1000 TC 30 24.9857 79.3023 1 4 298
1887233N21088 1887 37 NI BB NOT_NAMED 1887-08-24 21:00:00 TS 25.1426 78.9926 main 0 0 _________PP___ -1 25.2000 78.8925 TC 30 25.0852 79.0927 1 4 299
1887233N21088 1887 37 NI BB NOT_NAMED 1887-08-25 00:00:00 TS 25.2460 78.7933 main 0 0 _________OP___ -1 25.3000 78.7000 TC 30 25.1920 78.8867 1 4 301
1887233N21088 1887 37 NI BB NOT_NAMED 1887-08-25 03:00:00 TS 25.3500 78.6175 main 0 0 _________PO___ -1 25.4000 78.5350 TC 30 25.3000 78.7000 1 4 305
1887233N21088 1887 37 NI BB NOT_NAMED 1887-08-25 06:00:00 TS 25.4479 78.4746 main 0 0 _________OP___ -1 25.5000 78.4000 TC 30 25.3958 78.5492 1 3 309
1887233N21088 1887 37 NI BB NOT_NAMED 1887-08-25 09:00:00 TS 25.5462 78.3561 main 0 0 _________PP___ -1 25.6000 78.2925 TC 30 25.4924 78.4198 1 3 315
1887233N21088 1887 37 NI BB NOT_NAMED 1887-08-25 12:00:00 TS 25.6464 78.2527 main 0 0 _________OP___ -1 25.7000 78.2000 TC 30 25.5927 78.3055 1 3 317
1887233N21088 1887 37 NI BB NOT_NAMED 1887-08-25 15:00:00 TS 25.7462 78.1500 main 0 0 _________PO___ -1 25.7925 78.1000 TC 30 25.7000 78.2000 1 3 319
1887233N21088 1887 37 NI BB NOT_NAMED 1887-08-25 18:00:00 TS 25.8522 78.0560 main 0 0 _________OP___ -1 25.9000 78.0000 TC 30 25.8163 78.0980 1 3 324
1887233N21088 1887 37 NI AS NOT_NAMED 1887-08-25 21:00:00 TS 25.9801 77.9587 main 0 0 _________PP___ -1 26.0400 77.9001 TC 30 25.9401 77.9977 1 3 327
1887233N21088 1887 37 NI AS NOT_NAMED 1887-08-26 00:00:00 TS 26.1126 77.8658 main 0 0 _________OP___ -1 26.2000 77.8000 TC 30 26.0688 77.8986 1 3 327
1887233N21088 1887 37 NI AS NOT_NAMED 1887-08-26 03:00:00 NR 26.2000 77.8000 main 0 __________O___ -1 TC 26.2000 77.8000 1 2 327

About IBTrACS Database

This database is a web-friendly format of International Best Track Archive for Climate Stewardship (IBTrACS), a global best track data archive curated by NOAA dating back to 1842.

Updated: 2021-10-19